createdAt,value
2022-08-20T00:00:25.092Z,7.43
2022-08-20T00:02:55.589Z,6.00
2022-08-20T00:05:32.317Z,5.57
2022-08-20T00:08:00.477Z,8.77
2022-08-20T00:10:28.928Z,5.23
2022-08-20T00:12:56.938Z,6.90
2022-08-20T00:15:29.312Z,8.53
2022-08-20T00:17:57.259Z,6.40
2022-08-20T00:20:29.375Z,9.80
2022-08-20T00:22:57.817Z,7.83
2022-08-20T00:25:26.391Z,6.60
2022-08-20T00:27:53.055Z,7.07
2022-08-20T00:30:20.353Z,10.20
2022-08-20T00:32:56.458Z,10.80
2022-08-20T00:35:25.428Z,6.93
2022-08-20T00:37:55.386Z,8.07
2022-08-20T00:40:29.511Z,12.23
2022-08-20T00:42:58.466Z,13.00
2022-08-20T00:45:28.080Z,11.37
2022-08-20T00:47:55.659Z,9.60
2022-08-20T00:50:32.594Z,12.70
2022-08-20T00:53:00.514Z,10.87
2022-08-20T00:55:31.373Z,15.13
2022-08-20T00:58:02.039Z,17.97
2022-08-20T01:00:39.981Z,15.60
2022-08-20T01:03:09.782Z,10.37
2022-08-20T01:05:39.182Z,12.77
2022-08-20T01:08:06.553Z,14.97
2022-08-20T01:10:37.293Z,12.77
2022-08-20T01:13:10.913Z,11.23
2022-08-20T01:15:43.919Z,10.47
2022-08-20T01:18:14.636Z,12.93
2022-08-20T01:20:45.837Z,15.27
2022-08-20T01:23:27.770Z,11.93
2022-08-20T01:26:07.077Z,12.10
2022-08-20T01:28:40.074Z,13.23
2022-08-20T01:31:11.302Z,11.43
2022-08-20T01:33:39.056Z,11.50
2022-08-20T01:36:06.724Z,13.53
2022-08-20T01:38:34.246Z,10.80
2022-08-20T01:41:07.794Z,16.23
2022-08-20T01:43:37.005Z,20.53
2022-08-20T01:46:04.170Z,16.37
2022-08-20T01:48:31.732Z,18.87
2022-08-20T01:51:04.819Z,20.07
2022-08-20T01:53:37.246Z,21.50
2022-08-20T01:56:07.736Z,23.67
2022-08-20T01:58:38.226Z,22.07
2022-08-20T02:01:05.616Z,22.23
2022-08-20T02:03:37.424Z,24.43
2022-08-20T02:06:06.948Z,28.23
2022-08-20T02:08:33.872Z,23.67
2022-08-20T02:11:00.649Z,21.87
2022-08-20T02:13:27.334Z,17.93
2022-08-20T02:15:54.408Z,23.67
2022-08-20T02:18:22.166Z,23.10
2022-08-20T02:20:51.536Z,22.07
2022-08-20T02:23:18.795Z,21.13
2022-08-20T02:25:47.579Z,18.67
2022-08-20T02:28:17.604Z,20.33
2022-08-20T02:30:48.519Z,20.93
2022-08-20T02:33:17.909Z,18.83
2022-08-20T02:35:48.572Z,22.23
2022-08-20T02:38:16.430Z,20.67
2022-08-20T02:40:44.263Z,16.63
2022-08-20T02:43:12.150Z,19.90
2022-08-20T02:45:43.792Z,19.20
2022-08-20T02:48:18.474Z,18.27
2022-08-20T02:50:45.210Z,16.13
2022-08-20T02:53:11.991Z,18.27
2022-08-20T02:55:38.826Z,19.63
2022-08-20T02:58:05.822Z,17.30
2022-08-20T03:00:37.874Z,20.47
2022-08-20T03:03:06.604Z,19.03
2022-08-20T03:05:33.305Z,21.40
2022-08-20T03:08:00.244Z,16.10
2022-08-20T03:10:32.136Z,18.63
2022-08-20T03:13:01.571Z,19.80
2022-08-20T03:15:30.514Z,20.60
2022-08-20T03:17:57.454Z,21.67
2022-08-20T03:20:26.009Z,27.97
2022-08-20T03:22:52.805Z,25.50
2022-08-20T03:25:19.859Z,26.10
2022-08-20T03:27:47.252Z,26.30
2022-08-20T03:30:22.594Z,27.93
2022-08-20T03:32:49.281Z,24.33
2022-08-20T03:35:17.209Z,30.33
2022-08-20T03:37:45.763Z,34.70
2022-08-20T03:40:21.257Z,37.73
2022-08-20T03:42:48.010Z,46.57
2022-08-20T03:45:18.489Z,46.13
2022-08-20T03:47:48.576Z,51.93
2022-08-20T03:50:22.906Z,55.63
2022-08-20T03:52:51.653Z,55.37
2022-08-20T03:55:20.029Z,59.90
2022-08-20T03:57:49.713Z,47.83
2022-08-20T04:00:20.773Z,58.83
2022-08-20T04:02:47.733Z,52.63
2022-08-20T04:05:14.718Z,54.50
2022-08-20T04:07:41.621Z,54.30
2022-08-20T04:10:10.739Z,53.57
2022-08-20T04:12:48.666Z,56.23
2022-08-20T04:15:24.563Z,51.67
2022-08-20T04:17:52.763Z,47.47
2022-08-20T04:20:23.822Z,55.93
2022-08-20T04:22:58.959Z,49.63
2022-08-20T04:25:35.985Z,46.73
2022-08-20T04:28:06.002Z,50.13
2022-08-20T04:30:33.666Z,44.87
2022-08-20T04:33:00.907Z,44.47
2022-08-20T04:35:32.586Z,44.43
2022-08-20T04:38:02.507Z,36.30
2022-08-20T04:40:48.370Z,46.37
2022-08-20T04:43:15.469Z,36.93
2022-08-20T04:45:42.472Z,41.80
2022-08-20T04:48:14.275Z,39.13
2022-08-20T04:50:43.671Z,44.87
2022-08-20T04:53:12.733Z,39.17
2022-08-20T04:55:42.804Z,40.33
2022-08-20T04:58:20.896Z,41.37
2022-08-20T05:01:01.333Z,40.33
2022-08-20T05:03:29.025Z,43.50
2022-08-20T05:05:56.931Z,41.23
2022-08-20T05:08:26.043Z,41.63
2022-08-20T05:10:58.111Z,37.67
2022-08-20T05:13:41.078Z,35.77
2022-08-20T05:16:08.149Z,36.40
2022-08-20T05:18:35.262Z,37.07
2022-08-20T05:21:06.151Z,37.93
2022-08-20T05:23:35.752Z,42.00
2022-08-20T05:26:07.542Z,37.57
2022-08-20T05:28:36.917Z,38.90
2022-08-20T05:31:20.916Z,36.13
2022-08-20T05:33:48.841Z,36.93
2022-08-20T05:36:15.575Z,32.30
2022-08-20T05:38:44.257Z,36.10
2022-08-20T05:41:29.022Z,36.47
2022-08-20T05:44:03.591Z,32.28
2022-08-20T05:46:31.822Z,27.67
2022-08-20T05:49:01.631Z,33.90
2022-08-20T05:51:32.371Z,28.93
2022-08-20T05:53:59.846Z,26.25
2022-08-20T05:56:30.644Z,26.83
2022-08-20T05:59:04.418Z,26.92
2022-08-20T06:01:33.545Z,20.23
2022-08-20T06:04:19.450Z,28.33
2022-08-20T06:06:47.391Z,25.38
2022-08-20T06:09:31.481Z,22.17
2022-08-20T06:12:04.162Z,18.75
2022-08-20T06:14:32.081Z,21.98
2022-08-20T06:17:06.359Z,21.88
2022-08-20T06:19:35.123Z,17.48
2022-08-20T06:22:06.798Z,18.88
2022-08-20T06:24:47.711Z,15.07
2022-08-20T06:27:16.359Z,15.48
2022-08-20T06:29:43.795Z,10.00
2022-08-20T06:32:10.471Z,9.20
2022-08-20T06:34:37.362Z,9.90
2022-08-20T06:37:16.050Z,12.68
2022-08-20T06:39:43.240Z,10.82
2022-08-20T06:42:09.970Z,9.50
2022-08-20T06:44:37.571Z,10.75
2022-08-20T06:47:05.821Z,9.88
2022-08-20T06:49:36.558Z,8.18
2022-08-20T06:52:05.409Z,8.65
2022-08-20T06:54:32.867Z,14.77
2022-08-20T06:56:59.799Z,10.00
2022-08-20T06:59:26.587Z,10.57
2022-08-20T07:01:56.784Z,10.88
2022-08-20T07:04:26.022Z,9.45
2022-08-20T07:06:55.018Z,8.88
2022-08-20T07:09:22.367Z,8.85
2022-08-20T07:11:49.653Z,10.65
2022-08-20T07:14:17.693Z,10.18
2022-08-20T07:16:45.105Z,12.50
2022-08-20T07:19:11.810Z,9.43
2022-08-20T07:21:39.430Z,10.32
2022-08-20T07:24:06.700Z,12.10
2022-08-20T07:26:34.569Z,11.10
2022-08-20T07:29:01.364Z,11.75
2022-08-20T07:31:48.146Z,8.63
2022-08-20T07:34:15.026Z,8.93
2022-08-20T07:36:41.742Z,9.05
2022-08-20T07:39:09.372Z,8.20
2022-08-20T07:41:36.324Z,7.97
2022-08-20T07:44:03.288Z,7.85
2022-08-20T07:46:31.716Z,9.15
2022-08-20T07:48:59.092Z,8.48
2022-08-20T07:51:26.157Z,9.18
2022-08-20T07:53:53.245Z,10.10
2022-08-20T07:59:25.105Z,7.10
2022-08-20T08:01:52.984Z,11.25
2022-08-20T08:04:19.871Z,9.07
2022-08-20T08:06:46.784Z,8.43
2022-08-20T08:09:14.915Z,7.97
2022-08-20T08:11:47.849Z,6.28
2022-08-20T08:14:19.701Z,4.47
2022-08-20T08:16:46.519Z,5.15
2022-08-20T08:19:16.952Z,7.07
2022-08-20T08:21:44.452Z,6.10
2022-08-20T08:24:14.350Z,9.95
2022-08-20T08:26:44.014Z,6.72
2022-08-20T08:29:12.148Z,8.93
2022-08-20T08:31:40.956Z,10.10
2022-08-20T08:34:08.159Z,6.00
2022-08-20T08:36:34.816Z,4.20
2022-08-20T08:39:01.648Z,3.85
2022-08-20T08:41:48.045Z,3.17
2022-08-20T08:44:27.582Z,2.85
2022-08-20T08:47:18.273Z,13.35
2022-08-20T08:49:47.674Z,3.92
2022-08-20T08:52:24.484Z,4.90
2022-08-20T08:54:55.775Z,4.75
2022-08-20T08:57:24.180Z,5.80
2022-08-20T09:00:03.626Z,11.05
2022-08-20T09:02:33.593Z,4.75
2022-08-20T09:05:04.249Z,5.13
2022-08-20T09:07:33.584Z,7.05
2022-08-20T09:10:01.495Z,3.42
2022-08-20T09:12:28.422Z,3.92
2022-08-20T09:14:55.190Z,7.25
2022-08-20T09:17:24.503Z,8.85
2022-08-20T09:19:53.245Z,5.88
2022-08-20T09:22:22.593Z,3.25
2022-08-20T09:24:49.944Z,8.18
2022-08-20T09:27:16.723Z,3.67
2022-08-20T09:29:44.035Z,8.15
2022-08-20T09:32:19.309Z,7.78
2022-08-20T09:34:52.546Z,7.03
2022-08-20T09:37:19.893Z,8.93
2022-08-20T09:39:47.670Z,9.15
2022-08-20T09:42:18.003Z,6.18
2022-08-20T09:44:45.351Z,7.03
2022-08-20T09:47:12.048Z,10.27
2022-08-20T09:49:39.281Z,4.47
2022-08-20T09:52:08.696Z,8.05
2022-08-20T09:54:37.374Z,7.22
2022-08-20T09:57:07.108Z,6.75
2022-08-20T09:59:35.709Z,7.47
2022-08-20T10:02:03.026Z,5.05
2022-08-20T10:04:30.197Z,7.25
2022-08-20T10:06:57.007Z,4.32
2022-08-20T10:09:24.302Z,7.05
2022-08-20T10:11:51.073Z,7.70
2022-08-20T10:14:17.775Z,13.80
2022-08-20T10:16:44.471Z,9.40
2022-08-20T10:19:11.183Z,8.52
2022-08-20T10:21:39.027Z,6.53
2022-08-20T10:24:06.185Z,7.00
2022-08-20T10:26:33.051Z,5.28
2022-08-20T10:28:59.794Z,6.30
2022-08-20T10:31:26.480Z,5.82
2022-08-20T10:33:53.116Z,6.95
2022-08-20T10:36:20.152Z,6.82
2022-08-20T10:38:48.597Z,6.25
2022-08-20T10:41:15.374Z,10.60
2022-08-20T10:43:42.074Z,5.35
2022-08-20T10:46:09.165Z,5.68
2022-08-20T10:48:35.886Z,6.38
2022-08-20T10:51:02.609Z,5.82
2022-08-20T10:53:29.631Z,6.80
2022-08-20T10:55:57.708Z,5.70
2022-08-20T10:58:25.921Z,8.02
2022-08-20T11:01:02.357Z,8.10
2022-08-20T11:03:29.316Z,4.18
2022-08-20T11:05:56.098Z,3.38
2022-08-20T11:08:34.430Z,5.55
2022-08-20T11:11:04.449Z,8.45
2022-08-20T11:13:31.224Z,4.22
2022-08-20T11:15:58.015Z,5.43
2022-08-20T11:18:27.908Z,7.97
2022-08-20T11:20:55.401Z,5.22
2022-08-20T11:23:22.433Z,5.88
2022-08-20T11:25:49.468Z,4.90
2022-08-20T11:28:16.415Z,6.03
2022-08-20T11:30:58.149Z,4.07
2022-08-20T11:33:24.892Z,5.45
2022-08-20T11:35:51.848Z,5.38
2022-08-20T11:38:19.327Z,3.95
2022-08-20T11:40:48.842Z,3.88
2022-08-20T11:43:17.557Z,5.07
2022-08-20T11:45:50.821Z,4.63
2022-08-20T11:48:18.205Z,6.75
2022-08-20T11:50:45.446Z,3.47
2022-08-20T11:53:12.202Z,5.15
2022-08-20T11:55:49.088Z,7.50
2022-08-20T11:58:22.502Z,5.85
2022-08-20T12:01:04.190Z,3.72
2022-08-20T12:03:31.082Z,6.63
2022-08-20T12:05:58.037Z,7.72
2022-08-20T12:08:26.824Z,3.80
2022-08-20T12:10:55.519Z,5.35
2022-08-20T12:13:31.026Z,6.07
2022-08-20T12:16:11.114Z,4.75
2022-08-20T12:18:37.847Z,3.63
2022-08-20T12:21:04.601Z,4.50
2022-08-20T12:23:31.442Z,5.75
2022-08-20T12:25:59.237Z,3.10
2022-08-20T12:28:26.134Z,7.53
2022-08-20T12:30:52.854Z,3.80
2022-08-20T12:33:19.910Z,4.57
2022-08-20T12:35:46.691Z,5.05
2022-08-20T12:38:13.639Z,2.13
2022-08-20T12:40:40.935Z,6.53
2022-08-20T12:43:08.593Z,7.97
2022-08-20T12:45:36.414Z,4.03
2022-08-20T12:48:12.534Z,4.63
2022-08-20T12:50:41.892Z,4.93
2022-08-20T12:53:09.297Z,5.68
2022-08-20T12:55:36.430Z,3.75
2022-08-20T12:58:04.370Z,5.30
2022-08-20T13:00:34.816Z,5.30
2022-08-20T13:03:03.688Z,9.45
2022-08-20T13:05:31.271Z,6.75
2022-08-20T13:07:58.249Z,8.18
2022-08-20T13:10:28.424Z,7.32
2022-08-20T13:12:56.019Z,5.57
2022-08-20T13:15:23.545Z,7.50
2022-08-20T13:17:54.933Z,6.38
2022-08-20T13:20:34.541Z,4.25
2022-08-20T13:23:05.655Z,4.00
2022-08-20T13:25:33.541Z,7.18
2022-08-20T13:28:03.803Z,7.15
2022-08-20T13:30:35.488Z,4.65
2022-08-20T13:33:02.382Z,7.28
2022-08-20T13:35:30.019Z,6.60
2022-08-20T13:37:56.884Z,3.85
2022-08-20T13:40:23.685Z,4.03
2022-08-20T13:42:50.514Z,5.45
2022-08-20T13:45:17.645Z,9.70
2022-08-20T13:47:44.904Z,5.90
2022-08-20T13:50:18.776Z,3.40
2022-08-20T13:52:45.999Z,6.65
2022-08-20T13:55:16.608Z,4.75
2022-08-20T13:57:44.293Z,4.22
2022-08-20T14:00:15.086Z,5.95
2022-08-20T14:02:42.997Z,6.18
2022-08-20T14:05:11.315Z,2.53
2022-08-20T14:07:40.941Z,3.97
2022-08-20T14:10:11.781Z,7.90
2022-08-20T14:12:38.590Z,4.70
2022-08-20T14:15:06.867Z,7.65
2022-08-20T14:17:37.553Z,4.43
2022-08-20T14:20:17.051Z,7.50
2022-08-20T14:22:44.511Z,6.18
2022-08-20T14:25:14.317Z,7.68
2022-08-20T14:27:41.993Z,5.55
2022-08-20T14:30:12.603Z,3.35
2022-08-20T14:32:39.491Z,4.10
2022-08-20T14:35:07.373Z,8.93
2022-08-20T14:37:38.080Z,4.50
2022-08-20T14:40:08.908Z,4.10
2022-08-20T14:42:36.713Z,4.45
2022-08-20T14:45:06.480Z,4.05
2022-08-20T14:47:36.706Z,3.33
2022-08-20T14:50:09.958Z,5.47
2022-08-20T14:52:37.478Z,8.98
2022-08-20T14:55:06.010Z,4.43
2022-08-20T14:57:33.831Z,5.85
2022-08-20T15:00:00.750Z,11.27
2022-08-20T15:02:27.646Z,6.30
2022-08-20T15:04:54.864Z,3.72
2022-08-20T15:07:31.556Z,7.03
2022-08-20T15:10:00.506Z,3.83
2022-08-20T15:12:28.179Z,2.70
2022-08-20T15:14:54.971Z,4.88
2022-08-20T15:17:25.018Z,4.00
2022-08-20T15:19:52.579Z,7.28
2022-08-20T15:22:20.862Z,2.22
2022-08-20T15:24:47.852Z,5.60
2022-08-20T15:27:22.256Z,5.45
2022-08-20T15:29:50.725Z,5.63
2022-08-20T15:32:17.720Z,3.75
2022-08-20T15:34:44.656Z,6.03
2022-08-20T15:37:12.681Z,5.28
2022-08-20T15:39:41.073Z,5.80
2022-08-20T15:42:08.896Z,5.07
2022-08-20T15:44:36.541Z,3.97
2022-08-20T15:47:20.637Z,3.42
2022-08-20T15:49:49.777Z,5.65
2022-08-20T15:52:17.897Z,3.65
2022-08-20T15:54:46.847Z,4.85
2022-08-20T15:57:44.939Z,5.90
2022-08-20T16:00:20.138Z,5.88
2022-08-20T16:02:46.803Z,6.93
2022-08-20T16:05:27.757Z,4.32
2022-08-20T16:08:03.801Z,5.68
2022-08-20T16:10:58.930Z,8.88
2022-08-20T16:13:40.517Z,4.05
2022-08-20T16:16:17.926Z,10.02
2022-08-20T16:18:48.647Z,5.65
2022-08-20T16:21:19.101Z,8.93
2022-08-20T16:23:46.146Z,10.50
2022-08-20T16:26:47.193Z,5.00
2022-08-20T16:29:30.564Z,6.13
2022-08-20T16:32:03.796Z,5.63
2022-08-20T16:34:45.179Z,5.28
2022-08-20T16:37:28.032Z,5.20
2022-08-20T16:40:04.131Z,3.67
2022-08-20T16:42:37.365Z,4.85
2022-08-20T16:45:07.345Z,5.72
2022-08-20T16:47:36.374Z,5.53
2022-08-20T16:50:13.432Z,4.60
2022-08-20T16:52:42.539Z,5.78
2022-08-20T16:55:10.046Z,5.72
2022-08-20T16:57:36.887Z,7.20
2022-08-20T17:00:15.855Z,5.22
2022-08-20T17:02:54.014Z,7.25
2022-08-20T17:05:22.341Z,5.22
2022-08-20T17:07:53.415Z,3.60
2022-08-20T17:10:29.878Z,5.28
2022-08-20T17:13:00.017Z,6.95
2022-08-20T17:15:30.344Z,8.30
2022-08-20T17:17:57.798Z,5.15
2022-08-20T17:20:28.180Z,5.82
2022-08-20T17:23:10.959Z,3.53
2022-08-20T17:25:38.458Z,2.97
2022-08-20T17:28:20.057Z,8.57
2022-08-20T17:30:47.414Z,5.65
2022-08-20T17:33:37.392Z,4.50
2022-08-20T17:36:16.993Z,7.35
2022-08-20T17:38:47.706Z,3.00
2022-08-20T17:41:21.910Z,5.10
2022-08-20T17:43:57.511Z,5.57
2022-08-20T17:46:27.884Z,4.43
2022-08-20T17:48:57.776Z,5.97
2022-08-20T17:51:30.392Z,6.70
2022-08-20T17:54:08.808Z,2.40
2022-08-20T17:56:40.861Z,4.10
2022-08-20T18:00:02.647Z,6.40
2022-08-20T18:02:15.552Z,5.80
2022-08-20T18:04:42.851Z,4.13
2022-08-20T18:07:16.631Z,4.47
2022-08-20T18:09:52.439Z,4.25
2022-08-20T18:12:37.078Z,3.38
2022-08-20T18:15:24.723Z,4.90
2022-08-20T18:18:10.007Z,9.27
2022-08-20T18:20:39.494Z,4.57
2022-08-20T18:23:12.245Z,2.35
2022-08-20T18:26:02.682Z,5.35
2022-08-20T18:28:38.695Z,8.40
2022-08-20T18:31:08.993Z,3.42
2022-08-20T18:33:45.733Z,2.83
2022-08-20T18:36:19.469Z,2.95
2022-08-20T18:39:35.877Z,4.97
2022-08-20T18:42:06.932Z,5.00
2022-08-20T18:44:43.888Z,5.03
2022-08-20T18:47:32.693Z,3.75
2022-08-20T18:50:27.264Z,5.90
2022-08-20T18:53:14.765Z,6.40
2022-08-20T18:55:47.423Z,1.90
2022-08-20T18:58:34.543Z,6.07
2022-08-20T19:01:04.826Z,5.00
2022-08-20T19:03:43.592Z,5.30
2022-08-20T19:06:20.674Z,5.23
2022-08-20T19:09:04.311Z,10.33
2022-08-20T19:11:41.643Z,8.07
2022-08-20T19:14:22.713Z,5.70
2022-08-20T19:17:04.725Z,4.23
2022-08-20T19:19:33.084Z,6.93
2022-08-20T19:22:02.125Z,6.40
2022-08-20T19:24:35.016Z,3.23
2022-08-20T19:27:11.941Z,3.17
2022-08-20T19:29:49.954Z,7.60
2022-08-20T19:32:34.509Z,3.67
2022-08-20T19:35:07.466Z,4.47
2022-08-20T19:37:51.442Z,11.67
2022-08-20T19:40:29.976Z,9.10
2022-08-20T19:43:00.582Z,6.67
2022-08-20T19:45:41.240Z,8.67
2022-08-20T19:48:27.531Z,5.07
2022-08-20T19:51:06.313Z,5.40
2022-08-20T19:53:36.065Z,9.77
2022-08-20T19:56:24.288Z,4.57
2022-08-20T19:59:03.547Z,2.95
2022-08-20T20:01:30.865Z,3.73
2022-08-20T20:04:04.021Z,3.80
2022-08-20T20:06:36.401Z,2.60
2022-08-20T20:09:08.596Z,5.33
2022-08-20T20:11:45.009Z,3.53
2022-08-20T20:14:13.473Z,4.67
2022-08-20T20:16:42.297Z,2.73
2022-08-20T20:19:27.975Z,6.97
2022-08-20T20:22:26.717Z,3.33
2022-08-20T20:25:19.589Z,7.10
2022-08-20T20:27:51.803Z,5.67
2022-08-20T20:30:29.695Z,2.70
2022-08-20T20:32:58.001Z,5.67
2022-08-20T20:35:31.590Z,5.23
2022-08-20T20:38:07.580Z,4.63
2022-08-20T20:40:51.731Z,5.70
2022-08-20T20:43:29.436Z,5.63
2022-08-20T20:46:07.643Z,3.23
2022-08-20T20:48:50.211Z,5.03
2022-08-20T20:51:31.105Z,6.33
2022-08-20T20:54:05.342Z,5.40
2022-08-20T20:56:42.228Z,6.40
2022-08-20T20:59:10.420Z,6.37
2022-08-20T21:01:49.413Z,9.73
2022-08-20T21:04:23.027Z,2.93
2022-08-20T21:06:52.444Z,4.20
2022-08-20T21:09:19.985Z,7.87
2022-08-20T21:11:47.581Z,6.73
2022-08-20T21:14:15.054Z,4.93
2022-08-20T21:16:42.850Z,6.67
2022-08-20T21:19:11.200Z,6.47
2022-08-20T21:21:39.099Z,5.83
2022-08-20T21:24:07.211Z,4.43
2022-08-20T21:26:34.460Z,9.67
2022-08-20T21:29:01.338Z,3.77
2022-08-20T21:31:33.779Z,5.37
2022-08-20T21:34:00.907Z,5.57
2022-08-20T21:36:39.899Z,4.93
2022-08-20T21:39:14.157Z,6.50
2022-08-20T21:41:42.579Z,7.13
2022-08-20T21:44:21.527Z,3.80
2022-08-20T21:46:51.595Z,6.40
2022-08-20T21:49:19.869Z,4.07
2022-08-20T21:51:47.834Z,5.10
2022-08-20T21:54:15.204Z,4.03
2022-08-20T21:56:42.383Z,5.67
2022-08-20T21:59:10.348Z,9.30
2022-08-20T22:01:38.234Z,5.33
2022-08-20T22:04:06.640Z,4.90
2022-08-20T22:06:33.812Z,4.87
2022-08-20T22:09:00.534Z,8.70
2022-08-20T22:11:27.745Z,4.50
2022-08-20T22:13:54.520Z,5.57
2022-08-20T22:16:22.546Z,10.00
2022-08-20T22:18:50.794Z,6.70
2022-08-20T22:21:26.776Z,6.90
2022-08-20T22:23:57.109Z,2.67
2022-08-20T22:26:27.198Z,3.73
2022-08-20T22:28:54.444Z,6.57
2022-08-20T22:31:26.279Z,7.27
2022-08-20T22:33:53.154Z,3.83
2022-08-20T22:36:19.868Z,4.43
2022-08-20T22:38:47.372Z,3.90
2022-08-20T22:41:22.630Z,9.20
2022-08-20T22:43:56.970Z,6.60
2022-08-20T22:46:27.328Z,4.73
2022-08-20T22:48:55.586Z,7.13
2022-08-20T22:51:27.596Z,5.17
2022-08-20T22:53:54.415Z,4.93
2022-08-20T22:56:22.008Z,6.83
2022-08-20T22:58:50.145Z,4.77
2022-08-20T23:01:18.794Z,5.80
2022-08-20T23:03:45.844Z,5.53
2022-08-20T23:06:13.050Z,6.23
2022-08-20T23:08:41.797Z,5.60
2022-08-20T23:11:08.606Z,5.33
2022-08-20T23:13:35.380Z,3.77
2022-08-20T23:16:02.576Z,4.80
2022-08-20T23:18:29.297Z,6.17
2022-08-20T23:20:59.007Z,9.13
2022-08-20T23:23:26.908Z,5.33
2022-08-20T23:25:54.493Z,5.63
2022-08-20T23:28:23.964Z,10.47
2022-08-20T23:30:51.249Z,7.17
2022-08-20T23:33:18.551Z,5.37
2022-08-20T23:35:46.074Z,4.50
2022-08-20T23:38:13.098Z,8.40
2022-08-20T23:40:40.351Z,2.60
2022-08-20T23:43:07.621Z,10.30
2022-08-20T23:45:35.104Z,9.37
2022-08-20T23:48:06.752Z,5.47
2022-08-20T23:50:34.131Z,5.50
2022-08-20T23:53:00.989Z,9.13
2022-08-20T23:55:28.014Z,5.23
2022-08-20T23:57:55.309Z,8.17
